SHT2T EGLL-EGNT
Flight info
| Callsign | SHT2T |
|---|---|
| Flight time | 0h 43m |
| Altitude | 34000 |
| Route | ULTIB T420 AKUPA UY250 RIMTO |
| Aircraft | A319/M-SDE3FGHIRWY/LB1 |
Departure
| Time | 2026-05-05 10:54 |
|---|---|
| Airport | London Heathrow Airport (EGLL) |
Arrival
| Time | 2026-05-05 11:37 |
|---|---|
| Airport | Newcastle International Airport (EGNT) |
| Time | Latitude | Longitude | Altitude | Speed | Heading |
|---|---|---|---|---|---|
| 2026-05-05 10:18 | 51.47403 | -0.48829 | 86 ft | 0 kts | 180° |
| 2026-05-05 10:44 | 51.47406 | -0.48829 | 86 ft | 3 kts | 180° |
| 2026-05-05 10:44 | 51.47433 | -0.48829 | 89 ft | 4 kts | 180° |
| 2026-05-05 10:44 | 51.47455 | -0.48829 | 86 ft | 4 kts | 176° |
| 2026-05-05 10:45 | 51.47478 | -0.48841 | 90 ft | 4 kts | 130° |
| 2026-05-05 10:45 | 51.47488 | -0.48874 | 86 ft | 4 kts | 103° |
| 2026-05-05 10:45 | 51.47490 | -0.48891 | 89 ft | 0 kts | 103° |
| 2026-05-05 10:48 | 51.47489 | -0.48887 | 86 ft | 1 kts | 103° |
| 2026-05-05 10:48 | 51.47486 | -0.48860 | 86 ft | 4 kts | 97° |
| 2026-05-05 10:48 | 51.47487 | -0.48801 | 87 ft | 7 kts | 89° |
| 2026-05-05 10:48 | 51.47488 | -0.48709 | 89 ft | 10 kts | 89° |
| 2026-05-05 10:49 | 51.47489 | -0.48583 | 86 ft | 13 kts | 89° |
| 2026-05-05 10:49 | 51.47471 | -0.48479 | 86 ft | 10 kts | 149° |
| 2026-05-05 10:49 | 51.47394 | -0.48473 | 90 ft | 13 kts | 180° |
| 2026-05-05 10:49 | 51.47296 | -0.48473 | 86 ft | 16 kts | 179° |
| 2026-05-05 10:50 | 51.47185 | -0.48471 | 90 ft | 15 kts | 179° |
| 2026-05-05 10:50 | 51.47102 | -0.48471 | 88 ft | 11 kts | 179° |
| 2026-05-05 10:50 | 51.47016 | -0.48470 | 87 ft | 14 kts | 179° |
| 2026-05-05 10:50 | 51.46933 | -0.48469 | 89 ft | 8 kts | 180° |
| 2026-05-05 10:51 | 51.46873 | -0.48469 | 86 ft | 9 kts | 180° |
| 2026-05-05 10:51 | 51.46834 | -0.48469 | 86 ft | 3 kts | 179° |
| 2026-05-05 10:51 | 51.46817 | -0.48468 | 90 ft | 4 kts | 179° |
| 2026-05-05 10:51 | 51.46779 | -0.48468 | 86 ft | 7 kts | 180° |
| 2026-05-05 10:52 | 51.46718 | -0.48467 | 86 ft | 10 kts | 180° |
| 2026-05-05 10:52 | 51.46636 | -0.48467 | 89 ft | 13 kts | 180° |
| 2026-05-05 10:52 | 51.46538 | -0.48466 | 89 ft | 12 kts | 180° |
| 2026-05-05 10:52 | 51.46481 | -0.48442 | 87 ft | 9 kts | 122° |
| 2026-05-05 10:53 | 51.46480 | -0.48285 | 88 ft | 30 kts | 90° |
| 2026-05-05 10:53 | 51.46481 | -0.47603 | 87 ft | 92 kts | 89° |
| 2026-05-05 10:53 | 51.46486 | -0.46270 | 88 ft | 147 kts | 90° |
| 2026-05-05 10:53 | 51.46492 | -0.44495 | 514 ft | 160 kts | 89° |
| 2026-05-05 10:54 | 51.46500 | -0.42701 | 1230 ft | 161 kts | 88° |
| 2026-05-05 10:54 | 51.46750 | -0.40878 | 1699 ft | 181 kts | 61° |
| 2026-05-05 10:54 | 51.47591 | -0.39210 | 2072 ft | 206 kts | 47° |
| 2026-05-05 10:54 | 51.48595 | -0.37364 | 2614 ft | 232 kts | 49° |
| 2026-05-05 10:55 | 51.49689 | -0.35292 | 3316 ft | 252 kts | 49° |
| 2026-05-05 10:55 | 51.50830 | -0.33103 | 4395 ft | 258 kts | 49° |
| 2026-05-05 10:55 | 51.51982 | -0.30811 | 5404 ft | 265 kts | 55° |
| 2026-05-05 10:55 | 51.52750 | -0.28097 | 5881 ft | 270 kts | 70° |
| 2026-05-05 10:56 | 51.53513 | -0.25361 | 5981 ft | 268 kts | 54° |
| 2026-05-05 10:56 | 51.54864 | -0.23335 | 6003 ft | 267 kts | 30° |
| 2026-05-05 10:56 | 51.56417 | -0.22475 | 6004 ft | 266 kts | 7° |
| 2026-05-05 10:56 | 51.58257 | -0.22699 | 6007 ft | 267 kts | 347° |
| 2026-05-05 10:57 | 51.60077 | -0.23325 | 6006 ft | 267 kts | 349° |
| 2026-05-05 10:57 | 51.61868 | -0.24101 | 6004 ft | 267 kts | 338° |
| 2026-05-05 10:57 | 51.63513 | -0.25544 | 6418 ft | 272 kts | 329° |
| 2026-05-05 10:57 | 51.65143 | -0.27106 | 7422 ft | 273 kts | 330° |
| 2026-05-05 10:58 | 51.66791 | -0.28680 | 8415 ft | 277 kts | 330° |
| 2026-05-05 10:58 | 51.68464 | -0.30277 | 9381 ft | 282 kts | 330° |
| 2026-05-05 10:58 | 51.70163 | -0.31901 | 10247 ft | 290 kts | 330° |
| 2026-05-05 10:58 | 51.71972 | -0.33633 | 10634 ft | 313 kts | 329° |
| 2026-05-05 10:59 | 51.73886 | -0.35474 | 11242 ft | 326 kts | 329° |
| 2026-05-05 10:59 | 51.75849 | -0.37371 | 12025 ft | 331 kts | 329° |
| 2026-05-05 10:59 | 51.77861 | -0.39320 | 12831 ft | 336 kts | 329° |
| 2026-05-05 10:59 | 51.79879 | -0.41276 | 13608 ft | 340 kts | 329° |
| 2026-05-05 11:00 | 51.81927 | -0.43259 | 14363 ft | 345 kts | 329° |
| 2026-05-05 11:00 | 51.84000 | -0.45267 | 15086 ft | 349 kts | 329° |
| 2026-05-05 11:00 | 51.86091 | -0.47295 | 15793 ft | 353 kts | 329° |
| 2026-05-05 11:00 | 51.88205 | -0.49353 | 16489 ft | 357 kts | 329° |
| 2026-05-05 11:01 | 51.90344 | -0.51439 | 17173 ft | 361 kts | 329° |
| 2026-05-05 11:01 | 51.92507 | -0.53551 | 17829 ft | 365 kts | 329° |
| 2026-05-05 11:01 | 51.94695 | -0.55689 | 18484 ft | 369 kts | 329° |
| 2026-05-05 11:01 | 51.96904 | -0.57846 | 19107 ft | 373 kts | 329° |
| 2026-05-05 11:02 | 51.99141 | -0.60030 | 19733 ft | 377 kts | 329° |
| 2026-05-05 11:02 | 52.01395 | -0.62233 | 20364 ft | 381 kts | 328° |
| 2026-05-05 11:02 | 52.03679 | -0.64468 | 20978 ft | 384 kts | 328° |
| 2026-05-05 11:02 | 52.05977 | -0.66721 | 21595 ft | 387 kts | 328° |
| 2026-05-05 11:03 | 52.08287 | -0.68990 | 22192 ft | 390 kts | 328° |
| 2026-05-05 11:03 | 52.10621 | -0.71286 | 22773 ft | 393 kts | 328° |
| 2026-05-05 11:03 | 52.12966 | -0.73601 | 23333 ft | 396 kts | 328° |
| 2026-05-05 11:03 | 52.15334 | -0.75939 | 23870 ft | 400 kts | 328° |
| 2026-05-05 11:04 | 52.17720 | -0.78294 | 24384 ft | 403 kts | 328° |
| 2026-05-05 11:04 | 52.20127 | -0.80677 | 24887 ft | 406 kts | 328° |
| 2026-05-05 11:04 | 52.22547 | -0.83080 | 25393 ft | 409 kts | 327° |
| 2026-05-05 11:04 | 52.24990 | -0.85502 | 25883 ft | 412 kts | 328° |
| 2026-05-05 11:05 | 52.27446 | -0.87939 | 26368 ft | 414 kts | 327° |
| 2026-05-05 11:05 | 52.29920 | -0.90373 | 26829 ft | 417 kts | 330° |
| 2026-05-05 11:05 | 52.32627 | -0.92104 | 27263 ft | 422 kts | 346° |
| 2026-05-05 11:05 | 52.35512 | -0.93069 | 27715 ft | 425 kts | 348° |
| 2026-05-05 11:06 | 52.38422 | -0.94001 | 28171 ft | 427 kts | 348° |
| 2026-05-05 11:06 | 52.41352 | -0.94929 | 28608 ft | 430 kts | 348° |
| 2026-05-05 11:06 | 52.44294 | -0.95866 | 29038 ft | 432 kts | 348° |
| 2026-05-05 11:06 | 52.47292 | -0.96829 | 29464 ft | 434 kts | 348° |
| 2026-05-05 11:07 | 52.50267 | -0.97789 | 29871 ft | 437 kts | 348° |
| 2026-05-05 11:07 | 52.53255 | -0.98754 | 30268 ft | 439 kts | 347° |
| 2026-05-05 11:07 | 52.56265 | -0.99727 | 30648 ft | 441 kts | 348° |
| 2026-05-05 11:07 | 52.59290 | -1.00709 | 31005 ft | 444 kts | 348° |
| 2026-05-05 11:08 | 52.62331 | -1.01701 | 31354 ft | 446 kts | 348° |
| 2026-05-05 11:08 | 52.65382 | -1.02698 | 31690 ft | 449 kts | 348° |
| 2026-05-05 11:08 | 52.68452 | -1.03697 | 32061 ft | 450 kts | 348° |
| 2026-05-05 11:08 | 52.71516 | -1.04694 | 32522 ft | 448 kts | 348° |
| 2026-05-05 11:09 | 52.74573 | -1.05689 | 32971 ft | 448 kts | 348° |
| 2026-05-05 11:09 | 52.77630 | -1.06687 | 33422 ft | 447 kts | 348° |
| 2026-05-05 11:09 | 52.80670 | -1.07680 | 33847 ft | 446 kts | 348° |
| 2026-05-05 11:09 | 52.83723 | -1.08682 | 33995 ft | 445 kts | 348° |
| 2026-05-05 11:10 | 52.86718 | -1.09673 | 34031 ft | 433 kts | 348° |
| 2026-05-05 11:10 | 52.92545 | -1.11601 | 34028 ft | 425 kts | 348° |
| 2026-05-05 11:11 | 52.98374 | -1.13509 | 34025 ft | 423 kts | 348° |
| 2026-05-05 11:11 | 53.04144 | -1.15413 | 34018 ft | 423 kts | 348° |
| 2026-05-05 11:12 | 53.09913 | -1.17334 | 34019 ft | 423 kts | 348° |
| 2026-05-05 11:12 | 53.14704 | -1.18932 | 34015 ft | 422 kts | 348° |
| 2026-05-05 11:13 | 53.20459 | -1.20842 | 34016 ft | 422 kts | 348° |
| 2026-05-05 11:13 | 53.26207 | -1.22765 | 34013 ft | 421 kts | 348° |
| 2026-05-05 11:14 | 53.31960 | -1.24692 | 34015 ft | 421 kts | 348° |
| 2026-05-05 11:14 | 53.37697 | -1.26622 | 34012 ft | 421 kts | 348° |
| 2026-05-05 11:15 | 53.43470 | -1.28217 | 34013 ft | 421 kts | 355° |
| 2026-05-05 11:15 | 53.46394 | -1.28566 | 33834 ft | 419 kts | 355° |
| 2026-05-05 11:15 | 53.49306 | -1.28915 | 33268 ft | 420 kts | 355° |
| 2026-05-05 11:15 | 53.52225 | -1.29274 | 32653 ft | 422 kts | 355° |
| 2026-05-05 11:16 | 53.55145 | -1.29660 | 32155 ft | 419 kts | 352° |
| 2026-05-05 11:16 | 53.58029 | -1.30614 | 31685 ft | 415 kts | 342° |
| 2026-05-05 11:16 | 53.60715 | -1.32306 | 31217 ft | 410 kts | 333° |
| 2026-05-05 11:16 | 53.63191 | -1.34621 | 30749 ft | 407 kts | 328° |
| 2026-05-05 11:17 | 53.65609 | -1.37077 | 30270 ft | 404 kts | 328° |
| 2026-05-05 11:17 | 53.68005 | -1.39519 | 29804 ft | 401 kts | 327° |
| 2026-05-05 11:17 | 53.70378 | -1.41938 | 29347 ft | 398 kts | 327° |
| 2026-05-05 11:17 | 53.72743 | -1.44351 | 28892 ft | 395 kts | 327° |
| 2026-05-05 11:18 | 53.75091 | -1.46748 | 28439 ft | 393 kts | 328° |
| 2026-05-05 11:18 | 53.77422 | -1.49132 | 27997 ft | 390 kts | 327° |
| 2026-05-05 11:18 | 53.79733 | -1.51503 | 27566 ft | 388 kts | 327° |
| 2026-05-05 11:18 | 53.82037 | -1.53869 | 27139 ft | 386 kts | 327° |
| 2026-05-05 11:19 | 53.84326 | -1.56222 | 26721 ft | 383 kts | 327° |
| 2026-05-05 11:19 | 53.86593 | -1.58552 | 26306 ft | 381 kts | 327° |
| 2026-05-05 11:19 | 53.88854 | -1.60874 | 25881 ft | 378 kts | 327° |
| 2026-05-05 11:19 | 53.91095 | -1.63176 | 25457 ft | 376 kts | 327° |
| 2026-05-05 11:20 | 53.93327 | -1.65471 | 25029 ft | 373 kts | 327° |
| 2026-05-05 11:20 | 53.95625 | -1.67491 | 24588 ft | 373 kts | 340° |
| 2026-05-05 11:20 | 53.98122 | -1.68634 | 24157 ft | 371 kts | 345° |
| 2026-05-05 11:20 | 54.00628 | -1.69649 | 23724 ft | 369 kts | 345° |
| 2026-05-05 11:21 | 54.03118 | -1.70651 | 23268 ft | 366 kts | 345° |
| 2026-05-05 11:21 | 54.05593 | -1.71643 | 22823 ft | 363 kts | 345° |
| 2026-05-05 11:21 | 54.08079 | -1.72637 | 22362 ft | 361 kts | 345° |
| 2026-05-05 11:21 | 54.10510 | -1.73610 | 21918 ft | 358 kts | 345° |
| 2026-05-05 11:22 | 54.12930 | -1.74577 | 21468 ft | 356 kts | 345° |
| 2026-05-05 11:22 | 54.15327 | -1.75536 | 21025 ft | 353 kts | 345° |
| 2026-05-05 11:22 | 54.17680 | -1.76478 | 20581 ft | 350 kts | 345° |
| 2026-05-05 11:22 | 54.20070 | -1.77435 | 20087 ft | 347 kts | 345° |
| 2026-05-05 11:23 | 54.22417 | -1.78371 | 19576 ft | 344 kts | 345° |
| 2026-05-05 11:23 | 54.24705 | -1.79281 | 19064 ft | 342 kts | 345° |
| 2026-05-05 11:23 | 54.27044 | -1.80212 | 18572 ft | 339 kts | 345° |
| 2026-05-05 11:23 | 54.29337 | -1.81086 | 18070 ft | 337 kts | 349° |
| 2026-05-05 11:24 | 54.31664 | -1.81073 | 17580 ft | 336 kts | 7° |
| 2026-05-05 11:24 | 54.33960 | -1.80378 | 17078 ft | 334 kts | 9° |
| 2026-05-05 11:24 | 54.36243 | -1.79669 | 16579 ft | 332 kts | 9° |
| 2026-05-05 11:24 | 54.38501 | -1.78961 | 16107 ft | 329 kts | 9° |
| 2026-05-05 11:25 | 54.40748 | -1.78255 | 15620 ft | 327 kts | 9° |
| 2026-05-05 11:25 | 54.42973 | -1.77557 | 15134 ft | 324 kts | 8° |
| 2026-05-05 11:25 | 54.45180 | -1.76871 | 14582 ft | 320 kts | 8° |
| 2026-05-05 11:25 | 54.47359 | -1.76189 | 13899 ft | 317 kts | 9° |
| 2026-05-05 11:26 | 54.49522 | -1.75506 | 13235 ft | 314 kts | 9° |
| 2026-05-05 11:26 | 54.51656 | -1.74830 | 12573 ft | 310 kts | 9° |
| 2026-05-05 11:26 | 54.53773 | -1.74158 | 11946 ft | 309 kts | 9° |
| 2026-05-05 11:26 | 54.55875 | -1.73492 | 11502 ft | 306 kts | 9° |
| 2026-05-05 11:27 | 54.57963 | -1.72834 | 11046 ft | 304 kts | 9° |
| 2026-05-05 11:27 | 54.60033 | -1.72184 | 10592 ft | 302 kts | 9° |
| 2026-05-05 11:27 | 54.62090 | -1.71538 | 10131 ft | 300 kts | 9° |
| 2026-05-05 11:27 | 54.64122 | -1.70899 | 9865 ft | 291 kts | 9° |
| 2026-05-05 11:28 | 54.66095 | -1.70276 | 9639 ft | 284 kts | 9° |
| 2026-05-05 11:28 | 54.68009 | -1.69668 | 9452 ft | 277 kts | 9° |
| 2026-05-05 11:28 | 54.69901 | -1.69068 | 9070 ft | 275 kts | 9° |
| 2026-05-05 11:28 | 54.71802 | -1.68830 | 8697 ft | 278 kts | 350° |
| 2026-05-05 11:29 | 54.73606 | -1.69931 | 8316 ft | 273 kts | 332° |
| 2026-05-05 11:29 | 54.75255 | -1.71441 | 7940 ft | 264 kts | 330° |
| 2026-05-05 11:29 | 54.76862 | -1.72962 | 7558 ft | 257 kts | 330° |
| 2026-05-05 11:29 | 54.78408 | -1.74435 | 7182 ft | 250 kts | 330° |
| 2026-05-05 11:30 | 54.79912 | -1.75877 | 6806 ft | 244 kts | 330° |
| 2026-05-05 11:30 | 54.81380 | -1.77283 | 6431 ft | 238 kts | 330° |
| 2026-05-05 11:30 | 54.82800 | -1.78646 | 6060 ft | 229 kts | 330° |
| 2026-05-05 11:30 | 54.84172 | -1.79962 | 5696 ft | 221 kts | 330° |
| 2026-05-05 11:31 | 54.85485 | -1.81225 | 5371 ft | 211 kts | 330° |
| 2026-05-05 11:31 | 54.86747 | -1.82442 | 5053 ft | 203 kts | 330° |
| 2026-05-05 11:31 | 54.87941 | -1.83599 | 4862 ft | 190 kts | 330° |
| 2026-05-05 11:31 | 54.89077 | -1.84706 | 4540 ft | 186 kts | 330° |
| 2026-05-05 11:32 | 54.90196 | -1.85803 | 4166 ft | 184 kts | 330° |
| 2026-05-05 11:32 | 54.91307 | -1.86897 | 3792 ft | 182 kts | 330° |
| 2026-05-05 11:32 | 54.92400 | -1.87980 | 3438 ft | 180 kts | 330° |
| 2026-05-05 11:32 | 54.93489 | -1.89066 | 3165 ft | 179 kts | 331° |
| 2026-05-05 11:33 | 54.94674 | -1.89575 | 2887 ft | 178 kts | 7° |
| 2026-05-05 11:33 | 54.95784 | -1.88664 | 2590 ft | 181 kts | 35° |
| 2026-05-05 11:33 | 54.96760 | -1.87233 | 2274 ft | 185 kts | 40° |
| 2026-05-05 11:33 | 54.97721 | -1.85748 | 2225 ft | 181 kts | 40° |
| 2026-05-05 11:34 | 54.98624 | -1.84352 | 2137 ft | 169 kts | 41° |
| 2026-05-05 11:34 | 54.99480 | -1.83045 | 2002 ft | 158 kts | 40° |
| 2026-05-05 11:34 | 55.00296 | -1.81792 | 1687 ft | 154 kts | 45° |
| 2026-05-05 11:34 | 55.00755 | -1.80223 | 1515 ft | 138 kts | 69° |
| 2026-05-05 11:35 | 55.01152 | -1.78780 | 1330 ft | 128 kts | 63° |
| 2026-05-05 11:35 | 55.01542 | -1.77419 | 1133 ft | 125 kts | 63° |
| 2026-05-05 11:35 | 55.01914 | -1.76052 | 961 ft | 123 kts | 63° |
| 2026-05-05 11:35 | 55.02268 | -1.74714 | 822 ft | 123 kts | 65° |
| 2026-05-05 11:36 | 55.02632 | -1.73356 | 678 ft | 122 kts | 64° |
| 2026-05-05 11:36 | 55.02982 | -1.72043 | 482 ft | 120 kts | 64° |
| 2026-05-05 11:36 | 55.03330 | -1.70720 | 311 ft | 120 kts | 65° |
| 2026-05-05 11:36 | 55.03656 | -1.69490 | 257 ft | 95 kts | 65° |
| 2026-05-05 11:37 | 55.03861 | -1.68725 | 251 ft | 45 kts | 65° |
| 2026-05-05 11:37 | 55.03958 | -1.68407 | 249 ft | 25 kts | 44° |
| 2026-05-05 11:37 | 55.04077 | -1.68251 | 248 ft | 12 kts | 36° |
| 2026-05-05 11:37 | 55.04154 | -1.68271 | 248 ft | 14 kts | 290° |
| 2026-05-05 11:38 | 55.04117 | -1.68439 | 248 ft | 16 kts | 243° |
| 2026-05-05 11:38 | 55.04066 | -1.68632 | 249 ft | 18 kts | 247° |
| 2026-05-05 11:38 | 55.04010 | -1.68849 | 251 ft | 21 kts | 245° |
| 2026-05-05 11:38 | 55.03945 | -1.69090 | 252 ft | 23 kts | 245° |
| 2026-05-05 11:39 | 55.03875 | -1.69352 | 255 ft | 25 kts | 245° |
| 2026-05-05 11:39 | 55.03811 | -1.69637 | 257 ft | 26 kts | 252° |
| 2026-05-05 11:39 | 55.03777 | -1.69904 | 260 ft | 21 kts | 263° |
| 2026-05-05 11:39 | 55.03774 | -1.70135 | 263 ft | 11 kts | 273° |
| 2026-05-05 11:40 | 55.03779 | -1.70281 | 265 ft | 12 kts | 273° |
| 2026-05-05 11:40 | 55.03767 | -1.70413 | 267 ft | 12 kts | 224° |
| 2026-05-05 11:40 | 55.03675 | -1.70436 | 267 ft | 15 kts | 184° |
| 2026-05-05 11:40 | 55.03595 | -1.70518 | 267 ft | 16 kts | 254° |
| 2026-05-05 11:41 | 55.03594 | -1.70724 | 267 ft | 17 kts | 274° |
| 2026-05-05 11:41 | 55.03600 | -1.70830 | 267 ft | 7 kts | 280° |
| 2026-05-05 11:41 | 55.03644 | -1.70848 | 267 ft | 7 kts | 8° |
| 2026-05-05 11:41 | 55.03664 | -1.70846 | 267 ft | 2 kts | 4° |
| 2026-05-05 11:42 | 55.03669 | -1.70845 | 267 ft | 0 kts | 5° |